createdAt,value
2018-09-20T00:01:49.964Z,52.50
2018-09-20T00:04:19.174Z,51.80
2018-09-20T00:06:48.378Z,51.80
2018-09-20T00:09:17.651Z,51.80
2018-09-20T00:11:46.809Z,51.80
2018-09-20T00:14:16.049Z,51.80
2018-09-20T00:16:45.223Z,51.30
2018-09-20T00:19:14.443Z,51.90
2018-09-20T00:21:43.627Z,51.80
2018-09-20T00:24:12.893Z,51.60
2018-09-20T00:26:42.061Z,51.60
2018-09-20T00:29:11.290Z,51.50
2018-09-20T00:31:40.470Z,51.40
2018-09-20T00:34:09.667Z,51.40
2018-09-20T00:36:38.868Z,51.30
2018-09-20T00:39:11.109Z,51.50
2018-09-20T00:41:40.327Z,51.70
2018-09-20T00:44:10.031Z,51.90
2018-09-20T00:46:39.243Z,51.80
2018-09-20T00:49:08.444Z,51.90
2018-09-20T00:51:37.647Z,52.00
2018-09-20T00:54:06.883Z,52.20
2018-09-20T00:56:36.077Z,52.40
2018-09-20T00:59:05.284Z,52.50
2018-09-20T01:01:34.603Z,52.60
2018-09-20T01:04:03.818Z,52.70
2018-09-20T01:06:33.023Z,52.40
2018-09-20T01:09:02.307Z,52.50
2018-09-20T01:11:31.552Z,52.60
2018-09-20T01:14:00.704Z,52.70
2018-09-20T01:16:29.988Z,52.70
2018-09-20T01:18:59.179Z,52.70
2018-09-20T01:21:28.378Z,52.90
2018-09-20T01:23:57.577Z,53.30
2018-09-20T01:26:26.843Z,53.00
2018-09-20T01:28:56.063Z,53.10
2018-09-20T01:31:25.368Z,53.10
2018-09-20T01:33:55.147Z,53.80
2018-09-20T01:36:24.447Z,53.10
2018-09-20T01:38:53.856Z,53.20
2018-09-20T01:41:23.083Z,53.30
2018-09-20T01:43:52.257Z,53.40
2018-09-20T01:46:21.516Z,53.60
2018-09-20T01:48:50.711Z,53.70
2018-09-20T01:51:19.963Z,53.80
2018-09-20T01:53:49.142Z,53.70
2018-09-20T01:56:18.378Z,53.80
2018-09-20T01:58:47.619Z,53.80
2018-09-20T02:01:16.830Z,53.60
2018-09-20T02:03:46.164Z,53.80
2018-09-20T02:06:15.376Z,54.80
2018-09-20T02:08:44.564Z,54.10
2018-09-20T02:11:13.767Z,54.20
2018-09-20T02:13:42.964Z,54.00
2018-09-20T02:16:12.220Z,53.90
2018-09-20T02:18:41.377Z,54.00
2018-09-20T02:21:10.603Z,54.10
2018-09-20T02:23:39.963Z,54.30
2018-09-20T02:26:09.231Z,54.10
2018-09-20T02:28:38.476Z,54.20
2018-09-20T02:31:07.724Z,54.20
2018-09-20T02:33:36.970Z,54.30
2018-09-20T02:36:06.243Z,54.30
2018-09-20T02:38:35.718Z,54.50
2018-09-20T02:41:05.060Z,54.40
2018-09-20T02:43:34.195Z,54.40
2018-09-20T02:46:03.451Z,54.40
2018-09-20T02:48:32.626Z,54.40
2018-09-20T02:51:03.131Z,54.40
2018-09-20T02:53:32.327Z,54.50
2018-09-20T02:56:01.540Z,54.80
2018-09-20T02:58:30.743Z,54.80
2018-09-20T03:01:00.033Z,54.80
2018-09-20T03:03:29.230Z,54.50
2018-09-20T03:05:58.496Z,54.60
2018-09-20T03:08:27.666Z,54.60
2018-09-20T03:10:56.897Z,54.60
2018-09-20T03:13:26.103Z,54.60
2018-09-20T03:15:55.330Z,54.60
2018-09-20T03:18:24.533Z,54.60
2018-09-20T03:20:53.737Z,54.50
2018-09-20T03:23:22.925Z,54.60
2018-09-20T03:25:52.140Z,54.70
2018-09-20T03:28:21.346Z,54.70
2018-09-20T03:30:50.760Z,54.70
2018-09-20T03:33:19.943Z,54.90
2018-09-20T03:35:49.141Z,54.90
2018-09-20T03:38:18.397Z,55.80
2018-09-20T03:40:47.596Z,55.30
2018-09-20T03:43:16.789Z,55.40
2018-09-20T03:45:46.042Z,55.50
2018-09-20T03:48:15.233Z,55.50
2018-09-20T03:50:44.543Z,55.60
2018-09-20T03:53:13.792Z,55.60
2018-09-20T03:55:42.992Z,55.70
2018-09-20T03:58:12.196Z,55.60
2018-09-20T04:00:41.352Z,55.50
2018-09-20T04:03:10.573Z,55.40
2018-09-20T04:05:39.786Z,55.60
2018-09-20T04:08:09.043Z,55.70
2018-09-20T04:10:38.229Z,55.70
2018-09-20T04:13:07.469Z,55.70
2018-09-20T04:15:36.654Z,55.80
2018-09-20T04:18:05.872Z,56.00
2018-09-20T04:20:35.047Z,56.00
2018-09-20T04:23:04.284Z,56.10
2018-09-20T04:25:33.455Z,56.10
2018-09-20T04:28:02.676Z,56.00
2018-09-20T04:30:31.862Z,56.00
2018-09-20T04:33:01.101Z,56.10
2018-09-20T04:35:30.261Z,56.10
2018-09-20T04:37:59.477Z,56.30
2018-09-20T04:40:28.642Z,56.20
2018-09-20T04:42:57.854Z,56.10
2018-09-20T04:45:27.086Z,56.10
2018-09-20T04:47:56.308Z,56.10
2018-09-20T04:50:25.528Z,56.00
2018-09-20T04:52:54.756Z,56.10
2018-09-20T04:55:23.971Z,56.10
2018-09-20T04:57:53.239Z,56.00
2018-09-20T05:00:22.469Z,56.00
2018-09-20T05:02:51.676Z,56.00
2018-09-20T05:05:20.884Z,56.00
2018-09-20T05:07:50.123Z,56.00
2018-09-20T05:10:19.360Z,56.00
2018-09-20T05:12:48.590Z,56.10
2018-09-20T05:15:17.784Z,55.90
2018-09-20T05:17:46.992Z,55.80
2018-09-20T05:20:16.185Z,55.80
2018-09-20T05:22:45.412Z,56.00
2018-09-20T05:25:14.632Z,56.20
2018-09-20T05:27:43.862Z,56.30
2018-09-20T05:30:13.040Z,56.50
2018-09-20T05:32:42.248Z,56.60
2018-09-20T05:35:11.424Z,56.80
2018-09-20T05:37:40.654Z,56.80
2018-09-20T05:40:09.829Z,56.80
2018-09-20T05:42:39.063Z,56.80
2018-09-20T05:45:08.251Z,56.90
2018-09-20T05:47:37.467Z,56.90
2018-09-20T05:50:06.977Z,56.90
2018-09-20T05:52:36.241Z,56.90
2018-09-20T05:55:05.974Z,56.90
2018-09-20T05:57:35.227Z,56.90
2018-09-20T06:00:05.315Z,57.00
2018-09-20T06:02:34.556Z,57.10
2018-09-20T06:05:04.409Z,57.10
2018-09-20T06:07:33.757Z,57.20
2018-09-20T06:10:03.486Z,57.20
2018-09-20T06:12:32.698Z,57.20
2018-09-20T06:15:01.913Z,57.20
2018-09-20T06:17:31.101Z,57.20
2018-09-20T06:20:00.321Z,57.20
2018-09-20T06:22:29.524Z,57.30
2018-09-20T06:24:59.006Z,57.40
2018-09-20T06:27:28.192Z,57.60
2018-09-20T06:29:57.426Z,57.60
2018-09-20T06:32:26.738Z,57.70
2018-09-20T06:34:56.102Z,57.90
2018-09-20T06:37:25.273Z,58.00
2018-09-20T06:39:54.516Z,58.10
2018-09-20T06:42:23.736Z,58.10
2018-09-20T06:44:52.968Z,58.20
2018-09-20T06:47:22.220Z,58.20
2018-09-20T06:49:51.471Z,58.30
2018-09-20T06:52:20.674Z,58.30
2018-09-20T06:54:49.921Z,58.40
2018-09-20T06:57:19.141Z,58.40
2018-09-20T06:59:48.370Z,58.40
2018-09-20T07:02:17.601Z,58.50
2018-09-20T07:04:46.825Z,58.60
2018-09-20T07:07:16.141Z,58.60
2018-09-20T07:09:45.379Z,58.60
2018-09-20T07:12:14.568Z,58.70
2018-09-20T07:14:43.815Z,58.70
2018-09-20T07:17:13.027Z,58.50
2018-09-20T07:19:42.266Z,58.40
2018-09-20T07:22:11.469Z,58.40
2018-09-20T07:24:40.699Z,58.40
2018-09-20T07:27:09.975Z,58.60
2018-09-20T07:29:39.195Z,58.60
2018-09-20T07:32:08.571Z,58.60
2018-09-20T07:34:37.815Z,58.40
2018-09-20T07:37:07.027Z,58.10
2018-09-20T07:39:36.227Z,57.90
2018-09-20T07:42:05.416Z,57.80
2018-09-20T07:44:34.636Z,58.00
2018-09-20T07:47:03.885Z,58.30
2018-09-20T07:49:33.097Z,57.50
2018-09-20T07:52:02.272Z,57.60
2018-09-20T07:54:31.525Z,57.70
2018-09-20T07:57:00.794Z,57.70
2018-09-20T07:59:30.091Z,57.30
2018-09-20T08:01:59.315Z,56.90
2018-09-20T08:04:28.685Z,56.40
2018-09-20T08:06:57.933Z,56.20
2018-09-20T08:09:27.196Z,56.20
2018-09-20T08:11:56.412Z,55.90
2018-09-20T08:14:25.643Z,55.70
2018-09-20T08:16:54.851Z,55.70
2018-09-20T08:19:24.071Z,56.00
2018-09-20T08:21:53.281Z,55.50
2018-09-20T08:24:22.523Z,55.60
2018-09-20T08:26:51.666Z,55.60
2018-09-20T08:29:20.930Z,55.20
2018-09-20T08:31:50.224Z,55.90
2018-09-20T08:34:19.475Z,56.00
2018-09-20T08:36:48.772Z,55.50
2018-09-20T08:39:18.054Z,55.10
2018-09-20T08:41:47.303Z,55.50
2018-09-20T08:44:16.472Z,55.50
2018-09-20T08:46:45.708Z,54.90
2018-09-20T08:49:15.082Z,54.80
2018-09-20T08:51:44.325Z,54.80
2018-09-20T08:54:13.532Z,54.40
2018-09-20T08:56:42.830Z,54.10
2018-09-20T08:59:12.040Z,54.40
2018-09-20T09:01:41.281Z,54.70
2018-09-20T09:04:11.507Z,54.40
2018-09-20T09:06:40.748Z,54.60
2018-09-20T09:09:10.615Z,54.10
2018-09-20T09:11:40.291Z,54.00
2018-09-20T09:14:09.849Z,54.10
2018-09-20T09:16:39.217Z,53.90
2018-09-20T09:19:08.503Z,53.70
2018-09-20T09:21:39.092Z,54.00
2018-09-20T09:24:08.247Z,54.20
2018-09-20T09:26:37.454Z,53.90
2018-09-20T09:29:06.551Z,54.20
2018-09-20T09:31:36.293Z,53.90
2018-09-20T09:34:05.430Z,53.90
2018-09-20T09:36:34.679Z,53.70
2018-09-20T09:39:04.413Z,54.00
2018-09-20T09:41:33.697Z,54.20
2018-09-20T09:44:02.823Z,53.70
2018-09-20T09:46:32.083Z,53.50
2018-09-20T09:49:01.288Z,53.50
2018-09-20T09:51:30.571Z,53.20
2018-09-20T09:53:59.809Z,53.40
2018-09-20T09:56:29.233Z,53.10
2018-09-20T09:58:58.427Z,53.10
2018-09-20T10:01:27.777Z,53.00
2018-09-20T10:03:56.947Z,53.60
2018-09-20T10:06:26.139Z,53.10
2018-09-20T10:08:56.608Z,53.50
2018-09-20T10:11:25.891Z,53.10
2018-09-20T10:13:55.134Z,53.00
2018-09-20T10:16:24.341Z,52.80
2018-09-20T10:18:53.518Z,54.00
2018-09-20T10:21:22.737Z,53.40
2018-09-20T10:23:51.982Z,53.00
2018-09-20T10:26:21.280Z,52.70
2018-09-20T10:28:50.480Z,52.60
2018-09-20T10:31:19.932Z,52.50
2018-09-20T10:33:49.853Z,52.40
2018-09-20T10:36:19.121Z,52.40
2018-09-20T10:38:48.440Z,52.30
2018-09-20T10:41:17.696Z,52.30
2018-09-20T10:43:46.982Z,52.20
2018-09-20T10:46:16.223Z,52.60
2018-09-20T10:48:45.426Z,51.80
2018-09-20T10:51:14.893Z,51.90
2018-09-20T10:53:44.101Z,51.70
2018-09-20T10:56:13.335Z,51.40
2018-09-20T10:58:42.566Z,51.10
2018-09-20T11:01:11.861Z,51.10
2018-09-20T11:03:41.069Z,51.40
2018-09-20T11:06:10.331Z,51.00
2018-09-20T11:08:39.563Z,51.40
2018-09-20T11:11:08.902Z,51.10
2018-09-20T11:13:38.028Z,50.90
2018-09-20T11:16:07.319Z,50.70
2018-09-20T11:18:36.511Z,50.70
2018-09-20T11:21:05.848Z,50.60
2018-09-20T11:23:35.099Z,50.60
2018-09-20T11:26:04.363Z,50.40
2018-09-20T11:28:33.565Z,50.10
2018-09-20T11:31:02.803Z,50.40
2018-09-20T11:33:32.057Z,50.00
2018-09-20T11:36:01.292Z,49.70
2018-09-20T11:38:30.513Z,49.60
2018-09-20T11:40:59.753Z,49.60
2018-09-20T11:43:29.162Z,49.80
2018-09-20T11:45:58.383Z,49.90
2018-09-20T11:48:27.643Z,50.20
2018-09-20T11:50:56.835Z,49.60
2018-09-20T11:53:26.077Z,49.60
2018-09-20T11:55:55.258Z,49.80
2018-09-20T11:58:24.514Z,49.20
2018-09-20T12:00:54.021Z,49.10
2018-09-20T12:03:23.431Z,48.60
2018-09-20T12:05:52.688Z,48.60
2018-09-20T12:08:21.987Z,48.40
2018-09-20T12:10:51.182Z,48.20
2018-09-20T12:13:20.425Z,48.20
2018-09-20T12:15:49.670Z,48.10
2018-09-20T12:18:18.947Z,47.70
2018-09-20T12:20:48.441Z,47.50
2018-09-20T12:23:17.691Z,47.00
2018-09-20T12:25:46.911Z,46.90
2018-09-20T12:28:59.684Z,46.60
2018-09-20T12:31:29.983Z,46.30
2018-09-20T12:33:59.272Z,46.20
2018-09-20T12:36:28.494Z,45.70
2018-09-20T12:38:57.855Z,45.80
2018-09-20T12:41:26.973Z,45.90
2018-09-20T12:43:56.074Z,45.40
2018-09-20T12:46:25.318Z,45.30
2018-09-20T12:48:54.578Z,44.90
2018-09-20T12:51:23.826Z,44.50
2018-09-20T12:53:53.075Z,43.90
2018-09-20T12:56:22.298Z,43.90
2018-09-20T12:58:52.309Z,43.80
2018-09-20T13:01:22.464Z,43.70
2018-09-20T13:03:52.112Z,43.30
2018-09-20T13:06:21.256Z,43.20
2018-09-20T13:08:50.566Z,43.10
2018-09-20T13:11:20.398Z,42.70
2018-09-20T13:13:49.615Z,42.00
2018-09-20T13:16:18.892Z,42.30
2018-09-20T13:18:48.168Z,42.20
2018-09-20T13:21:17.381Z,42.10
2018-09-20T13:23:46.614Z,41.80
2018-09-20T13:26:15.758Z,41.30
2018-09-20T13:28:45.033Z,41.40
2018-09-20T13:31:14.259Z,41.40
2018-09-20T13:33:43.700Z,40.80
2018-09-20T13:36:12.887Z,40.90
2018-09-20T13:38:42.311Z,40.70
2018-09-20T13:41:11.509Z,40.10
2018-09-20T13:43:40.870Z,40.20
2018-09-20T13:46:10.124Z,39.90
2018-09-20T13:48:39.590Z,39.50
2018-09-20T13:51:09.328Z,39.20
2018-09-20T13:53:38.609Z,38.90
2018-09-20T13:56:07.820Z,38.70
2018-09-20T13:58:37.352Z,39.00
2018-09-20T14:01:06.689Z,39.50
2018-09-20T14:03:35.920Z,39.60
2018-09-20T14:06:05.092Z,40.10
2018-09-20T14:08:34.319Z,39.70
2018-09-20T14:11:03.564Z,39.60
2018-09-20T14:13:32.700Z,39.00
2018-09-20T14:16:01.874Z,38.70
2018-09-20T14:18:31.016Z,38.50
2018-09-20T14:21:00.135Z,38.30
2018-09-20T14:23:29.349Z,37.90
2018-09-20T14:25:58.522Z,38.30
2018-09-20T14:28:27.888Z,38.50
2018-09-20T14:30:57.066Z,38.60
2018-09-20T14:33:26.384Z,38.70
2018-09-20T14:35:55.465Z,38.40
2018-09-20T14:38:24.749Z,38.50
2018-09-20T14:40:53.871Z,38.60
2018-09-20T14:43:23.064Z,38.70
2018-09-20T14:45:52.304Z,38.50
2018-09-20T14:48:21.511Z,38.20
2018-09-20T14:50:50.897Z,37.70
2018-09-20T14:53:20.182Z,37.60
2018-09-20T14:55:49.465Z,37.70
2018-09-20T15:01:22.351Z,37.20
2018-09-20T15:03:51.572Z,36.50
2018-09-20T15:06:20.678Z,36.30
2018-09-20T15:08:49.984Z,36.00
2018-09-20T15:11:19.212Z,35.90
2018-09-20T15:13:48.298Z,35.80
2018-09-20T15:16:17.412Z,37.10
2018-09-20T15:19:11.360Z,36.60
2018-09-20T15:21:40.469Z,36.40
2018-09-20T15:24:09.918Z,36.60
2018-09-20T15:26:39.343Z,36.70
2018-09-20T15:29:08.565Z,37.00
2018-09-20T15:32:05.089Z,37.40
2018-09-20T15:34:34.342Z,37.50
2018-09-20T15:37:03.546Z,37.30
2018-09-20T15:39:32.775Z,38.00
2018-09-20T15:42:02.096Z,37.80
2018-09-20T15:44:31.299Z,37.30
2018-09-20T15:47:00.552Z,37.20
2018-09-20T15:49:29.790Z,37.30
2018-09-20T15:51:58.995Z,37.20
2018-09-20T15:54:28.245Z,37.20
2018-09-20T15:56:57.379Z,37.30
2018-09-20T15:59:26.609Z,37.60
2018-09-20T16:01:55.780Z,37.80
2018-09-20T16:04:25.231Z,38.10
2018-09-20T16:06:54.420Z,38.10
2018-09-20T16:09:23.616Z,38.00
2018-09-20T16:11:52.804Z,38.10
2018-09-20T16:14:22.425Z,38.10
2018-09-20T16:16:51.827Z,38.10
2018-09-20T16:19:21.224Z,38.50
2018-09-20T16:21:50.304Z,38.20
2018-09-20T16:24:19.533Z,38.20
2018-09-20T16:26:48.690Z,38.30
2018-09-20T16:29:25.994Z,38.50
2018-09-20T16:34:13.490Z,38.60
2018-09-20T16:36:56.085Z,38.90
2018-09-20T16:39:27.055Z,39.00
2018-09-20T16:42:00.348Z,39.30
2018-09-20T16:44:29.584Z,39.40
2018-09-20T16:46:58.744Z,39.30
2018-09-20T16:49:27.968Z,39.90
2018-09-20T16:51:57.146Z,40.10
2018-09-20T16:54:26.371Z,40.20
2018-09-20T16:56:55.684Z,40.80
2018-09-20T16:59:24.905Z,40.60
2018-09-20T17:01:54.088Z,40.50
2018-09-20T17:04:23.326Z,40.50
2018-09-20T17:06:52.496Z,40.40
2018-09-20T17:09:21.719Z,40.90
2018-09-20T17:11:51.068Z,40.90
2018-09-20T17:14:20.362Z,41.00
2018-09-20T17:16:49.584Z,41.10
2018-09-20T17:19:18.835Z,41.20
2018-09-20T17:21:47.980Z,41.30
2018-09-20T17:24:17.221Z,41.30
2018-09-20T17:26:46.424Z,42.10
2018-09-20T17:29:15.705Z,41.60
2018-09-20T17:31:45.092Z,41.50
2018-09-20T17:34:14.436Z,41.50
2018-09-20T17:36:44.141Z,41.60
2018-09-20T17:39:14.500Z,41.70
2018-09-20T17:41:45.749Z,42.40
2018-09-20T17:44:14.948Z,41.80
2018-09-20T17:46:44.167Z,42.10
2018-09-20T17:49:13.397Z,42.00
2018-09-20T17:51:43.089Z,42.10
2018-09-20T17:54:12.837Z,42.10
2018-09-20T17:56:42.607Z,42.10
2018-09-20T17:59:11.808Z,42.20
2018-09-20T18:01:40.965Z,42.40
2018-09-20T18:04:10.193Z,42.40
2018-09-20T18:06:39.377Z,42.40
2018-09-20T18:09:09.660Z,42.40
2018-09-20T18:11:38.868Z,42.30
2018-09-20T18:14:08.045Z,42.50
2018-09-20T18:16:37.281Z,43.00
2018-09-20T18:19:06.434Z,43.30
2018-09-20T18:21:35.650Z,43.50
2018-09-20T18:24:04.772Z,43.80
2018-09-20T18:26:33.989Z,44.00
2018-09-20T18:29:03.169Z,44.10
2018-09-20T18:31:32.397Z,44.20
2018-09-20T18:34:01.714Z,44.30
2018-09-20T18:36:30.919Z,44.40
2018-09-20T18:39:00.093Z,44.50
2018-09-20T18:41:29.586Z,44.50
2018-09-20T18:43:58.947Z,44.60
2018-09-20T18:46:28.251Z,44.60
2018-09-20T18:48:57.580Z,44.60
2018-09-20T18:51:28.946Z,44.60
2018-09-20T18:53:58.232Z,44.70
2018-09-20T18:56:27.434Z,44.70
2018-09-20T18:58:56.615Z,44.80
2018-09-20T19:01:25.926Z,44.90
2018-09-20T19:03:55.121Z,45.50
2018-09-20T19:06:25.103Z,45.00
2018-09-20T19:08:54.405Z,45.10
2018-09-20T19:11:23.603Z,45.10
2018-09-20T19:13:52.793Z,45.00
2018-09-20T19:16:25.709Z,45.00
2018-09-20T19:18:54.885Z,45.20
2018-09-20T19:21:24.481Z,45.20
2018-09-20T19:23:53.294Z,45.40
2018-09-20T19:26:22.555Z,45.40
2018-09-20T19:28:51.560Z,45.40
2018-09-20T19:31:20.515Z,45.40
2018-09-20T19:33:49.364Z,45.40
2018-09-20T19:36:18.223Z,45.50
2018-09-20T19:38:47.074Z,45.50
2018-09-20T19:41:15.939Z,45.50
2018-09-20T19:43:44.794Z,45.50
2018-09-20T19:46:13.679Z,45.60
2018-09-20T19:48:42.842Z,45.70
2018-09-20T19:51:11.723Z,45.70
2018-09-20T19:53:40.614Z,45.80
2018-09-20T19:56:09.480Z,45.80
2018-09-20T19:58:38.302Z,45.90
2018-09-20T20:01:07.195Z,45.80
2018-09-20T20:03:36.043Z,45.90
2018-09-20T20:06:04.921Z,46.00
2018-09-20T20:08:33.772Z,46.00
2018-09-20T20:11:02.658Z,46.10
2018-09-20T20:13:31.515Z,46.00
2018-09-20T20:16:00.379Z,46.20
2018-09-20T20:18:29.211Z,46.20
2018-09-20T20:20:58.179Z,46.20
2018-09-20T20:23:27.002Z,46.40
2018-09-20T20:25:55.975Z,46.40
2018-09-20T20:28:24.847Z,46.40
2018-09-20T20:30:53.740Z,46.40
2018-09-20T20:33:22.586Z,46.60
2018-09-20T20:35:51.475Z,46.40
2018-09-20T20:38:20.395Z,46.40
2018-09-20T20:40:49.216Z,46.30
2018-09-20T20:43:18.116Z,46.50
2018-09-20T20:45:46.951Z,46.60
2018-09-20T20:48:15.842Z,46.60
2018-09-20T20:50:44.687Z,46.70
2018-09-20T20:53:13.548Z,46.80
2018-09-20T20:55:42.384Z,46.80
2018-09-20T20:58:11.239Z,46.80
2018-09-20T21:00:40.355Z,47.00
2018-09-20T21:03:09.373Z,46.90
2018-09-20T21:05:38.206Z,47.10
2018-09-20T21:08:07.067Z,46.90
2018-09-20T21:10:35.907Z,47.10
2018-09-20T21:13:04.761Z,47.10
2018-09-20T21:15:33.582Z,47.20
2018-09-20T21:18:02.451Z,47.20
2018-09-20T21:20:31.287Z,47.20
2018-09-20T21:23:00.146Z,47.20
2018-09-20T21:25:28.962Z,47.20
2018-09-20T21:27:57.824Z,47.30
2018-09-20T21:30:26.756Z,47.60
2018-09-20T21:32:55.619Z,47.50
2018-09-20T21:35:24.439Z,47.60
2018-09-20T21:37:53.415Z,47.70
2018-09-20T21:40:22.253Z,47.50
2018-09-20T21:42:51.108Z,47.60
2018-09-20T21:45:19.939Z,47.80
2018-09-20T21:47:48.825Z,47.50
2018-09-20T21:50:17.647Z,47.80
2018-09-20T21:52:46.500Z,47.80
2018-09-20T21:55:15.338Z,47.90
2018-09-20T21:57:44.231Z,48.00
2018-09-20T22:00:13.100Z,48.10
2018-09-20T22:02:47.119Z,48.00
2018-09-20T22:05:15.972Z,48.10
2018-09-20T22:07:44.866Z,48.00
2018-09-20T22:10:13.739Z,48.00
2018-09-20T22:12:42.626Z,48.00
2018-09-20T22:15:16.403Z,48.10
2018-09-20T22:17:45.305Z,48.10
2018-09-20T22:20:14.371Z,48.10
2018-09-20T22:22:43.294Z,48.10
2018-09-20T22:25:12.185Z,48.40
2018-09-20T22:27:41.211Z,48.40
2018-09-20T22:30:10.244Z,48.30
2018-09-20T22:32:39.131Z,48.40
2018-09-20T22:35:08.010Z,48.30
2018-09-20T22:37:36.872Z,48.70
2018-09-20T22:40:05.860Z,48.60
2018-09-20T22:42:34.705Z,48.60
2018-09-20T22:45:04.191Z,48.80
2018-09-20T22:47:34.022Z,48.70
2018-09-20T22:50:03.015Z,48.60
2018-09-20T22:52:31.870Z,48.60
2018-09-20T22:55:00.753Z,48.70
2018-09-20T22:57:29.615Z,48.70
2018-09-20T22:59:58.515Z,48.90
2018-09-20T23:02:27.348Z,48.90
2018-09-20T23:04:56.244Z,48.90
2018-09-20T23:07:25.108Z,48.90
2018-09-20T23:09:54.093Z,49.00
2018-09-20T23:12:22.926Z,49.00
2018-09-20T23:14:51.874Z,49.10
2018-09-20T23:17:20.723Z,49.10
2018-09-20T23:19:49.615Z,49.30
2018-09-20T23:22:18.495Z,49.30
2018-09-20T23:24:47.379Z,49.20
2018-09-20T23:27:16.231Z,49.30
2018-09-20T23:29:45.107Z,49.20
2018-09-20T23:32:13.972Z,49.30
2018-09-20T23:34:42.870Z,49.60
2018-09-20T23:37:11.703Z,49.40
2018-09-20T23:39:40.592Z,49.50
2018-09-20T23:42:09.461Z,49.50
2018-09-20T23:44:38.349Z,49.50
2018-09-20T23:47:07.176Z,49.40
2018-09-20T23:49:36.054Z,49.50
2018-09-20T23:52:04.982Z,49.50
2018-09-20T23:54:33.859Z,49.50
2018-09-20T23:57:02.700Z,49.50
2018-09-20T23:59:31.595Z,49.50
